TimeCST,TemperatureF,Dew PointF,Humidity,Sea Level PressureIn,VisibilityMPH,Wind Direction,Wind SpeedMPH,Gust SpeedMPH,PrecipitationIn,Events,Conditions,WindDirDegrees,DateUTC
12:01 AM,8.6,1.4,73,29.93,2.5,WNW,26.5,-,0.00,Snow,Light Snow,290,2012-11-12 06:01:00
12:25 AM,8.6,1.4,73,29.93,3.0,West,25.3,-,0.00,,Haze,280,2012-11-12 06:25:00
12:54 AM,7.0,1.0,77,30.06,4.0,West,26.5,33.4,0.00,,Haze,280,2012-11-12 06:54:00
1:54 AM,7.0,1.0,77,30.07,3.0,West,25.3,-,N/A,,Haze,280,2012-11-12 07:54:00
2:54 AM,7.0,1.0,77,30.09,9.0,West,21.9,29.9,N/A,,Overcast,280,2012-11-12 08:54:00
3:54 AM,7.0,-0.0,73,30.10,10.0,West,17.3,-,N/A,,Mostly Cloudy,270,2012-11-12 09:54:00
4:54 AM,6.1,-0.9,73,30.11,10.0,West,12.7,-,N/A,,Clear,270,2012-11-12 10:54:00
5:54 AM,5.0,-2.0,73,30.14,10.0,West,18.4,-,N/A,,Clear,270,2012-11-12 11:54:00
6:54 AM,5.0,-4.0,66,30.15,10.0,West,17.3,-,N/A,,Clear,260,2012-11-12 12:54:00
7:54 AM,6.1,-4.0,63,30.17,10.0,WSW,15.0,-,N/A,,Clear,250,2012-11-12 13:54:00
8:54 AM,5.0,-2.0,73,30.19,10.0,WSW,8.1,-,N/A,,Clear,240,2012-11-12 14:54:00
9:54 AM,10.4,1.4,67,30.07,10.0,WSW,11.5,-,N/A,,Clear,240,2012-11-12 15:54:00
10:54 AM,12.0,3.0,67,30.20,10.0,WSW,12.7,-,N/A,,Clear,240,2012-11-12 16:54:00
11:54 AM,15.1,6.1,68,30.19,10.0,WSW,10.4,-,N/A,,Clear,250,2012-11-12 17:54:00
12:54 PM,17.1,8.1,68,30.18,10.0,SW,13.8,-,N/A,,Clear,220,2012-11-12 18:54:00
1:54 PM,19.0,10.0,68,30.17,10.0,SW,13.8,-,N/A,,Clear,230,2012-11-12 19:54:00
2:54 PM,19.0,10.9,71,30.15,10.0,SW,15.0,-,N/A,,Clear,230,2012-11-12 20:54:00
3:54 PM,19.9,10.9,68,30.15,10.0,SW,13.8,24.2,N/A,,Clear,220,2012-11-12 21:54:00
4:54 PM,19.9,12.0,71,30.16,10.0,SW,12.7,-,N/A,,Clear,230,2012-11-12 22:54:00
5:54 PM,18.0,10.9,74,30.17,10.0,SW,12.7,-,N/A,,Clear,230,2012-11-12 23:54:00
6:54 PM,15.1,10.0,80,30.18,10.0,SSW,4.6,-,N/A,,Clear,210,2012-11-13 00:54:00
7:54 PM,12.9,8.1,81,30.17,10.0,SW,4.6,-,N/A,,Clear,230,2012-11-13 01:54:00
8:54 PM,14.0,10.0,84,30.18,10.0,SW,3.5,-,N/A,,Clear,220,2012-11-13 02:54:00
9:54 PM,17.1,12.0,81,30.17,10.0,WSW,8.1,-,N/A,,Clear,250,2012-11-13 03:54:00
10:54 PM,18.0,12.9,81,30.17,10.0,SW,4.6,-,N/A,,Clear,220,2012-11-13 04:54:00
11:54 PM,19.0,12.9,77,30.18,10.0,Calm,Calm,-,N/A,,Clear,0,2012-11-13 05:54:00